createdAt,value
2017-08-23T00:00:21.831Z,75.20
2017-08-23T00:02:49.402Z,75.60
2017-08-23T00:05:16.961Z,75.00
2017-08-23T00:07:44.473Z,75.30
2017-08-23T00:10:11.969Z,75.60
2017-08-23T00:12:39.480Z,75.90
2017-08-23T00:15:07.010Z,76.20
2017-08-23T00:17:34.558Z,76.10
2017-08-23T00:20:02.049Z,76.40
2017-08-23T00:22:29.571Z,76.20
2017-08-23T00:24:57.090Z,76.60
2017-08-23T00:27:24.607Z,77.20
2017-08-23T00:29:52.118Z,76.30
2017-08-23T00:32:19.629Z,76.40
2017-08-23T00:34:47.166Z,76.60
2017-08-23T00:37:14.750Z,76.00
2017-08-23T00:39:42.266Z,76.10
2017-08-23T00:42:09.781Z,76.20
2017-08-23T00:44:37.333Z,76.60
2017-08-23T00:47:04.878Z,75.80
2017-08-23T00:49:32.383Z,75.90
2017-08-23T00:51:59.869Z,75.70
2017-08-23T00:54:27.391Z,75.80
2017-08-23T00:56:55.175Z,75.80
2017-08-23T00:59:22.714Z,76.50
2017-08-23T01:01:50.250Z,75.70
2017-08-23T01:04:17.784Z,75.90
2017-08-23T01:06:46.586Z,75.90
2017-08-23T01:09:14.205Z,76.00
2017-08-23T01:11:41.697Z,76.10
2017-08-23T01:14:09.276Z,76.10
2017-08-23T01:16:36.782Z,76.20
2017-08-23T01:19:04.302Z,76.40
2017-08-23T01:21:31.798Z,76.50
2017-08-23T01:23:59.370Z,76.50
2017-08-23T01:26:26.876Z,76.40
2017-08-23T01:28:54.369Z,76.80
2017-08-23T01:31:21.886Z,76.90
2017-08-23T01:33:49.372Z,77.00
2017-08-23T01:36:18.399Z,76.80
2017-08-23T01:38:45.920Z,76.70
2017-08-23T01:41:13.434Z,76.80
2017-08-23T01:43:40.932Z,76.90
2017-08-23T01:46:08.555Z,76.70
2017-08-23T01:48:36.074Z,77.00
2017-08-23T01:51:06.198Z,77.10
2017-08-23T01:53:33.726Z,77.20
2017-08-23T01:56:01.268Z,77.60
2017-08-23T01:58:28.805Z,77.90
2017-08-23T02:00:56.358Z,77.90
2017-08-23T02:03:23.900Z,78.70
2017-08-23T02:05:51.409Z,78.20
2017-08-23T02:08:18.985Z,78.00
2017-08-23T02:10:46.478Z,78.20
2017-08-23T02:13:13.989Z,78.10
2017-08-23T02:15:41.524Z,78.00
2017-08-23T02:18:09.062Z,77.80
2017-08-23T02:20:36.605Z,77.90
2017-08-23T02:23:04.109Z,77.90
2017-08-23T02:25:31.600Z,77.80
2017-08-23T02:27:59.133Z,78.00
2017-08-23T02:30:27.269Z,78.00
2017-08-23T02:32:54.793Z,78.30
2017-08-23T02:35:22.361Z,78.40
2017-08-23T02:37:49.967Z,79.30
2017-08-23T02:40:17.459Z,78.50
2017-08-23T02:42:45.024Z,78.80
2017-08-23T02:45:12.534Z,79.00
2017-08-23T02:47:40.024Z,79.10
2017-08-23T02:50:07.528Z,79.40
2017-08-23T02:52:35.074Z,79.50
2017-08-23T02:55:02.621Z,79.50
2017-08-23T02:57:30.165Z,79.80
2017-08-23T02:59:57.702Z,79.70
2017-08-23T03:02:25.240Z,80.10
2017-08-23T03:04:52.789Z,80.10
2017-08-23T03:07:20.283Z,80.10
2017-08-23T03:09:47.803Z,80.10
2017-08-23T03:12:15.334Z,80.20
2017-08-23T03:14:42.869Z,80.30
2017-08-23T03:17:10.370Z,80.30
2017-08-23T03:19:38.595Z,80.50
2017-08-23T03:22:06.101Z,80.50
2017-08-23T03:24:33.640Z,80.50
2017-08-23T03:27:01.146Z,80.60
2017-08-23T03:29:28.642Z,81.40
2017-08-23T03:31:56.191Z,80.80
2017-08-23T03:34:23.691Z,80.80
2017-08-23T03:36:51.281Z,80.70
2017-08-23T03:39:18.783Z,80.70
2017-08-23T03:41:46.397Z,80.70
2017-08-23T03:44:13.898Z,80.80
2017-08-23T03:46:41.465Z,80.70
2017-08-23T03:49:09.007Z,80.70
2017-08-23T03:51:36.558Z,81.30
2017-08-23T03:54:04.065Z,81.70
2017-08-23T03:56:31.574Z,81.90
2017-08-23T03:58:59.177Z,82.20
2017-08-23T04:01:26.685Z,82.30
2017-08-23T04:03:54.261Z,82.30
2017-08-23T04:06:21.802Z,82.30
2017-08-23T04:08:49.350Z,82.50
2017-08-23T04:11:16.844Z,82.70
2017-08-23T04:13:44.353Z,82.80
2017-08-23T04:16:11.846Z,83.10
2017-08-23T04:18:39.425Z,83.10
2017-08-23T04:21:06.916Z,82.50
2017-08-23T04:23:34.509Z,83.00
2017-08-23T04:26:02.053Z,82.90
2017-08-23T04:28:29.597Z,82.70
2017-08-23T04:30:57.093Z,82.80
2017-08-23T04:33:24.794Z,82.20
2017-08-23T04:35:52.434Z,81.90
2017-08-23T04:38:19.954Z,82.00
2017-08-23T04:40:47.525Z,81.40
2017-08-23T04:43:15.013Z,81.20
2017-08-23T04:45:42.523Z,80.70
2017-08-23T04:48:10.053Z,80.50
2017-08-23T04:50:37.594Z,80.50
2017-08-23T04:53:05.137Z,80.30
2017-08-23T04:55:32.645Z,80.00
2017-08-23T04:58:00.133Z,80.00
2017-08-23T05:00:27.670Z,80.00
2017-08-23T05:02:55.215Z,80.10
2017-08-23T05:05:22.722Z,80.20
2017-08-23T05:07:50.209Z,80.20
2017-08-23T05:10:17.741Z,80.00
2017-08-23T05:12:46.189Z,80.00
2017-08-23T05:15:13.758Z,80.20
2017-08-23T05:17:41.245Z,79.90
2017-08-23T05:20:08.749Z,79.70
2017-08-23T05:22:36.297Z,79.60
2017-08-23T05:25:03.829Z,79.30
2017-08-23T05:27:31.329Z,78.90
2017-08-23T05:29:58.913Z,78.70
2017-08-23T05:32:26.463Z,78.30
2017-08-23T05:34:54.261Z,77.80
2017-08-23T05:37:21.854Z,75.90
2017-08-23T05:39:49.405Z,74.20
2017-08-23T05:42:16.916Z,72.20
2017-08-23T05:44:44.405Z,72.30
2017-08-23T05:47:11.917Z,70.60
2017-08-23T05:49:39.477Z,70.50
2017-08-23T05:52:07.014Z,69.50
2017-08-23T05:54:34.564Z,67.90
2017-08-23T05:57:02.126Z,67.30
2017-08-23T05:59:29.610Z,67.70
2017-08-23T06:01:57.120Z,70.00
2017-08-23T06:04:24.622Z,71.20
2017-08-23T06:06:52.134Z,72.20
2017-08-23T06:09:19.622Z,72.80
2017-08-23T06:11:47.129Z,73.30
2017-08-23T06:14:14.669Z,74.20
2017-08-23T06:16:42.171Z,74.50
2017-08-23T06:19:09.753Z,74.50
2017-08-23T06:21:37.297Z,74.80
2017-08-23T06:24:04.941Z,74.70
2017-08-23T06:26:32.489Z,74.20
2017-08-23T06:29:00.038Z,72.90
2017-08-23T06:31:27.539Z,71.50
2017-08-23T06:33:55.045Z,69.10
2017-08-23T06:36:22.533Z,67.30
2017-08-23T06:38:50.134Z,66.00
2017-08-23T06:41:17.637Z,64.10
2017-08-23T06:43:45.173Z,63.30
2017-08-23T06:46:12.759Z,61.60
2017-08-23T06:48:40.281Z,60.30
2017-08-23T06:51:07.770Z,59.90
2017-08-23T06:53:35.313Z,59.20
2017-08-23T06:56:02.821Z,58.60
2017-08-23T06:58:30.390Z,58.60
2017-08-23T07:00:57.885Z,58.10
2017-08-23T07:03:25.393Z,57.20
2017-08-23T07:05:52.917Z,56.70
2017-08-23T07:08:20.430Z,56.20
2017-08-23T07:10:47.934Z,56.00
2017-08-23T07:13:15.413Z,55.10
2017-08-23T07:15:42.929Z,54.80
2017-08-23T07:18:10.632Z,55.10
2017-08-23T07:20:38.149Z,54.80
2017-08-23T07:23:05.695Z,54.60
2017-08-23T07:25:33.241Z,54.70
2017-08-23T07:28:00.733Z,53.50
2017-08-23T07:30:28.365Z,53.90
2017-08-23T07:32:55.976Z,55.00
2017-08-23T07:35:23.465Z,54.70
2017-08-23T07:37:50.968Z,54.40
2017-08-23T07:40:18.504Z,53.90
2017-08-23T07:42:46.072Z,53.40
2017-08-23T07:45:13.566Z,52.70
2017-08-23T07:47:41.073Z,52.50
2017-08-23T07:50:08.574Z,52.60
2017-08-23T07:52:36.149Z,52.40
2017-08-23T07:55:03.657Z,52.20
2017-08-23T07:57:31.202Z,53.10
2017-08-23T07:59:58.759Z,53.00
2017-08-23T08:02:26.298Z,52.00
2017-08-23T08:04:53.781Z,52.00
2017-08-23T08:07:21.336Z,51.50
2017-08-23T08:09:48.853Z,50.90
2017-08-23T08:12:16.574Z,50.80
2017-08-23T08:14:44.121Z,49.10
2017-08-23T08:17:11.614Z,49.10
2017-08-23T08:19:39.207Z,49.10
2017-08-23T08:22:06.797Z,49.80
2017-08-23T08:24:34.373Z,50.00
2017-08-23T08:27:01.924Z,48.90
2017-08-23T08:29:29.474Z,49.50
2017-08-23T08:31:56.978Z,49.00
2017-08-23T08:34:24.485Z,49.00
2017-08-23T08:36:51.997Z,48.60
2017-08-23T08:39:19.562Z,47.60
2017-08-23T08:41:47.181Z,47.50
2017-08-23T08:44:14.731Z,47.80
2017-08-23T08:46:42.274Z,47.90
2017-08-23T08:49:09.934Z,48.00
2017-08-23T08:51:37.456Z,47.90
2017-08-23T08:54:05.005Z,47.80
2017-08-23T08:56:32.548Z,47.40
2017-08-23T08:59:00.041Z,46.70
2017-08-23T09:01:27.637Z,46.50
2017-08-23T09:03:55.132Z,46.20
2017-08-23T09:06:22.725Z,45.60
2017-08-23T09:08:50.210Z,45.80
2017-08-23T09:11:17.697Z,45.00
2017-08-23T09:13:45.201Z,45.30
2017-08-23T09:16:12.753Z,45.10
2017-08-23T09:18:40.375Z,46.20
2017-08-23T09:21:07.918Z,45.90
2017-08-23T09:23:35.432Z,45.40
2017-08-23T09:26:02.925Z,44.80
2017-08-23T09:28:30.521Z,44.20
2017-08-23T09:30:58.399Z,44.40
2017-08-23T09:33:25.915Z,44.70
2017-08-23T09:35:53.469Z,44.90
2017-08-23T09:38:21.037Z,44.30
2017-08-23T09:40:48.548Z,43.50
2017-08-23T09:43:16.077Z,43.60
2017-08-23T09:45:43.589Z,42.40
2017-08-23T09:48:11.161Z,43.00
2017-08-23T09:50:38.786Z,43.10
2017-08-23T09:53:06.314Z,43.50
2017-08-23T09:55:33.817Z,43.20
2017-08-23T09:58:01.310Z,42.30
2017-08-23T10:00:28.815Z,42.50
2017-08-23T10:02:56.300Z,42.90
2017-08-23T10:05:23.881Z,42.60
2017-08-23T10:07:51.429Z,42.90
2017-08-23T10:10:18.977Z,42.30
2017-08-23T10:12:46.518Z,41.40
2017-08-23T10:15:14.073Z,40.70
2017-08-23T10:17:41.618Z,41.10
2017-08-23T10:20:09.113Z,39.90
2017-08-23T10:22:36.693Z,40.80
2017-08-23T10:25:04.237Z,40.60
2017-08-23T10:27:31.837Z,40.30
2017-08-23T10:29:59.417Z,40.10
2017-08-23T10:32:26.969Z,40.20
2017-08-23T10:34:54.461Z,39.90
2017-08-23T10:37:21.970Z,38.80
2017-08-23T10:39:49.461Z,39.20
2017-08-23T10:42:16.969Z,39.60
2017-08-23T10:44:44.563Z,38.70
2017-08-23T10:47:12.146Z,38.30
2017-08-23T10:49:40.752Z,38.10
2017-08-23T10:52:08.895Z,38.00
2017-08-23T10:54:36.405Z,36.70
2017-08-23T10:57:03.951Z,36.20
2017-08-23T10:59:31.493Z,37.00
2017-08-23T11:01:59.022Z,36.40
2017-08-23T11:04:26.581Z,35.60
2017-08-23T11:06:54.220Z,35.80
2017-08-23T11:09:21.724Z,36.20
2017-08-23T11:11:49.314Z,35.70
2017-08-23T11:14:16.817Z,34.60
2017-08-23T11:16:44.419Z,34.60
2017-08-23T11:19:11.958Z,34.70
2017-08-23T11:21:39.819Z,34.90
2017-08-23T11:24:07.350Z,33.70
2017-08-23T11:26:34.892Z,34.50
2017-08-23T11:29:02.433Z,34.70
2017-08-23T11:31:29.988Z,34.60
2017-08-23T11:33:57.600Z,34.90
2017-08-23T11:36:25.061Z,35.70
2017-08-23T11:38:52.601Z,34.80
2017-08-23T11:41:20.171Z,34.70
2017-08-23T11:43:47.694Z,33.70
2017-08-23T11:46:15.331Z,33.00
2017-08-23T11:48:42.915Z,33.60
2017-08-23T11:51:10.758Z,33.40
2017-08-23T11:53:38.552Z,34.60
2017-08-23T11:56:06.234Z,32.30
2017-08-23T11:58:33.800Z,31.70
2017-08-23T12:01:01.421Z,31.20
2017-08-23T12:03:28.945Z,31.60
2017-08-23T12:05:56.473Z,30.40
2017-08-23T12:08:24.054Z,30.50
2017-08-23T12:10:51.701Z,30.00
2017-08-23T12:13:19.201Z,29.50
2017-08-23T12:15:46.784Z,29.70
2017-08-23T12:18:14.297Z,28.80
2017-08-23T12:20:41.858Z,29.20
2017-08-23T12:23:19.414Z,29.20
2017-08-23T12:25:46.998Z,29.20
2017-08-23T12:28:14.522Z,29.10
2017-08-23T12:30:42.081Z,28.90
2017-08-23T12:33:09.626Z,28.20
2017-08-23T12:35:37.153Z,28.00
2017-08-23T12:38:04.685Z,26.90
2017-08-23T12:40:32.182Z,27.00
2017-08-23T12:42:59.757Z,27.70
2017-08-23T12:45:27.298Z,27.70
2017-08-23T12:47:54.815Z,27.40
2017-08-23T12:50:22.306Z,27.20
2017-08-23T12:52:49.896Z,26.80
2017-08-23T12:55:17.429Z,27.10
2017-08-23T12:57:44.947Z,27.70
2017-08-23T13:00:12.513Z,27.00
2017-08-23T13:02:40.037Z,25.80
2017-08-23T13:05:07.590Z,25.00
2017-08-23T13:07:35.162Z,25.10
2017-08-23T13:10:02.681Z,25.50
2017-08-23T13:12:30.241Z,25.80
2017-08-23T13:14:57.745Z,26.80
2017-08-23T13:17:25.377Z,26.80
2017-08-23T13:19:52.946Z,26.20
2017-08-23T13:22:20.618Z,27.20
2017-08-23T13:24:48.134Z,26.40
2017-08-23T13:27:15.697Z,26.50
2017-08-23T13:29:43.245Z,26.40
2017-08-23T13:32:10.808Z,26.60
2017-08-23T13:34:38.345Z,26.40
2017-08-23T13:37:05.892Z,25.70
2017-08-23T13:39:33.511Z,25.40
2017-08-23T13:42:01.005Z,26.20
2017-08-23T13:44:28.605Z,27.30
2017-08-23T13:46:56.152Z,27.20
2017-08-23T13:49:23.642Z,26.80
2017-08-23T13:51:51.161Z,26.30
2017-08-23T13:54:18.682Z,24.90
2017-08-23T13:56:46.219Z,25.00
2017-08-23T13:59:13.772Z,25.10
2017-08-23T14:01:41.324Z,24.30
2017-08-23T14:04:08.861Z,24.40
2017-08-23T14:06:36.500Z,25.30
2017-08-23T14:09:04.069Z,25.90
2017-08-23T14:11:31.590Z,26.60
2017-08-23T14:13:59.157Z,28.10
2017-08-23T14:16:26.677Z,28.30
2017-08-23T14:18:54.223Z,29.00
2017-08-23T14:21:21.869Z,29.60
2017-08-23T14:23:49.539Z,30.10
2017-08-23T14:26:17.187Z,31.40
2017-08-23T14:28:44.709Z,31.70
2017-08-23T14:31:12.249Z,32.20
2017-08-23T14:33:39.851Z,33.20
2017-08-23T14:36:07.450Z,33.20
2017-08-23T14:38:34.954Z,33.40
2017-08-23T14:41:02.526Z,33.00
2017-08-23T14:43:30.029Z,33.50
2017-08-23T14:45:57.558Z,34.00
2017-08-23T14:48:25.159Z,34.50
2017-08-23T14:50:52.683Z,34.30
2017-08-23T14:53:20.211Z,34.30
2017-08-23T14:55:47.716Z,34.50
2017-08-23T14:58:15.418Z,35.60
2017-08-23T15:00:42.961Z,36.20
2017-08-23T15:03:10.509Z,37.00
2017-08-23T15:05:38.149Z,36.30
2017-08-23T15:08:05.698Z,35.80
2017-08-23T15:10:33.185Z,36.20
2017-08-23T15:13:00.727Z,37.30
2017-08-23T15:15:28.341Z,38.20
2017-08-23T15:17:55.840Z,37.90
2017-08-23T15:20:23.370Z,38.70
2017-08-23T15:22:50.857Z,39.20
2017-08-23T15:25:18.402Z,39.80
2017-08-23T15:27:45.969Z,39.50
2017-08-23T15:30:13.481Z,39.30
2017-08-23T15:32:40.965Z,39.80
2017-08-23T15:35:08.477Z,40.00
2017-08-23T15:37:36.117Z,40.30
2017-08-23T15:40:03.621Z,41.30
2017-08-23T15:42:31.320Z,41.00
2017-08-23T15:44:58.856Z,41.50
2017-08-23T15:47:26.439Z,41.50
2017-08-23T15:49:54.049Z,41.80
2017-08-23T15:52:21.613Z,42.50
2017-08-23T15:54:49.102Z,43.00
2017-08-23T15:57:16.680Z,43.50
2017-08-23T15:59:44.233Z,44.40
2017-08-23T16:02:11.765Z,44.50
2017-08-23T16:04:39.249Z,44.70
2017-08-23T16:07:06.850Z,45.20
2017-08-23T16:09:34.338Z,45.60
2017-08-23T16:12:01.965Z,45.30
2017-08-23T16:14:29.487Z,45.50
2017-08-23T16:16:57.155Z,45.70
2017-08-23T16:19:24.778Z,46.40
2017-08-23T16:21:52.321Z,46.50
2017-08-23T16:24:19.868Z,46.50
2017-08-23T16:26:47.357Z,46.90
2017-08-23T16:29:14.890Z,46.90
2017-08-23T16:31:42.420Z,47.00
2017-08-23T16:34:09.944Z,46.70
2017-08-23T16:36:37.489Z,47.00
2017-08-23T16:39:05.025Z,47.40
2017-08-23T16:41:32.594Z,47.50
2017-08-23T16:44:00.223Z,47.70
2017-08-23T16:46:27.742Z,47.80
2017-08-23T16:48:55.433Z,47.90
2017-08-23T16:51:22.954Z,48.30
2017-08-23T16:53:50.445Z,48.20
2017-08-23T16:56:17.955Z,48.40
2017-08-23T16:58:45.817Z,49.30
2017-08-23T17:01:13.444Z,48.50
2017-08-23T17:03:40.937Z,49.00
2017-08-23T17:06:08.449Z,48.90
2017-08-23T17:08:35.933Z,48.80
2017-08-23T17:11:03.437Z,49.20
2017-08-23T17:13:31.056Z,49.20
2017-08-23T17:15:59.869Z,49.60
2017-08-23T17:18:27.670Z,49.70
2017-08-23T17:20:55.299Z,49.80
2017-08-23T17:23:22.837Z,49.90
2017-08-23T17:25:50.340Z,49.80
2017-08-23T17:28:17.859Z,50.10
2017-08-23T17:30:45.365Z,50.30
2017-08-23T17:33:12.873Z,50.40
2017-08-23T17:35:40.453Z,50.60
2017-08-23T17:38:07.957Z,51.20
2017-08-23T17:40:35.565Z,50.80
2017-08-23T17:43:03.201Z,50.90
2017-08-23T17:45:30.689Z,51.10
2017-08-23T17:47:58.269Z,51.30
2017-08-23T17:50:25.780Z,51.50
2017-08-23T17:52:53.337Z,51.70
2017-08-23T17:55:20.865Z,52.10
2017-08-23T17:57:48.393Z,52.30
2017-08-23T18:00:16.157Z,52.80
2017-08-23T18:02:43.745Z,53.20
2017-08-23T18:05:11.273Z,54.10
2017-08-23T18:07:38.830Z,53.60
2017-08-23T18:10:06.337Z,53.90
2017-08-23T18:12:33.917Z,54.20
2017-08-23T18:15:01.485Z,54.30
2017-08-23T18:17:29.009Z,54.80
2017-08-23T18:19:56.549Z,55.00
2017-08-23T18:22:24.093Z,55.10
2017-08-23T18:24:51.653Z,55.40
2017-08-23T18:27:19.145Z,55.70
2017-08-23T18:29:46.681Z,55.90
2017-08-23T18:32:14.395Z,56.10
2017-08-23T18:34:41.909Z,56.30
2017-08-23T18:37:09.588Z,56.60
2017-08-23T18:39:37.126Z,56.90
2017-08-23T18:42:04.655Z,57.10
2017-08-23T18:44:32.198Z,57.40
2017-08-23T18:46:59.745Z,57.50
2017-08-23T18:49:27.281Z,57.80
2017-08-23T18:51:54.789Z,58.00
2017-08-23T18:54:22.369Z,58.10
2017-08-23T18:56:49.881Z,58.20
2017-08-23T18:59:17.382Z,58.30
2017-08-23T19:01:44.943Z,58.90
2017-08-23T19:04:12.453Z,58.70
2017-08-23T19:06:39.986Z,58.80
2017-08-23T19:09:07.529Z,59.10
2017-08-23T19:11:35.038Z,59.00
2017-08-23T19:14:02.549Z,59.20
2017-08-23T19:16:30.065Z,59.40
2017-08-23T19:18:57.576Z,59.60
2017-08-23T19:21:25.122Z,59.70
2017-08-23T19:23:52.693Z,60.80
2017-08-23T19:26:20.410Z,60.00
2017-08-23T19:28:47.958Z,60.40
2017-08-23T19:31:15.461Z,60.60
2017-08-23T19:33:42.964Z,60.70
2017-08-23T19:36:10.549Z,61.00
2017-08-23T19:38:38.065Z,61.20
2017-08-23T19:41:05.737Z,61.40
2017-08-23T19:43:33.285Z,61.60
2017-08-23T19:46:00.829Z,61.80
2017-08-23T19:48:28.391Z,61.90
2017-08-23T19:50:55.921Z,62.10
2017-08-23T19:53:23.417Z,62.30
2017-08-23T19:55:51.014Z,62.40
2017-08-23T19:58:18.574Z,62.60
2017-08-23T20:00:46.082Z,63.60
2017-08-23T20:03:13.637Z,63.00
2017-08-23T20:05:41.142Z,63.30
2017-08-23T20:08:08.721Z,63.40
2017-08-23T20:10:36.338Z,63.60
2017-08-23T20:13:03.921Z,63.70
2017-08-23T20:15:31.561Z,64.00
2017-08-23T20:17:59.067Z,64.20
2017-08-23T20:20:26.552Z,64.20
2017-08-23T20:22:54.057Z,64.50
2017-08-23T20:25:21.555Z,64.70
2017-08-23T20:27:49.078Z,65.70
2017-08-23T20:30:16.627Z,65.10
2017-08-23T20:32:44.241Z,65.20
2017-08-23T20:35:11.797Z,65.30
2017-08-23T20:37:39.322Z,65.50
2017-08-23T20:40:06.829Z,65.60
2017-08-23T20:42:34.422Z,65.70
2017-08-23T20:45:01.965Z,65.90
2017-08-23T20:47:29.514Z,66.10
2017-08-23T20:49:57.154Z,66.40
2017-08-23T20:52:24.756Z,66.40
2017-08-23T20:54:52.345Z,66.60
2017-08-23T20:57:19.888Z,66.90
2017-08-23T20:59:47.433Z,67.30
2017-08-23T21:02:14.925Z,67.60
2017-08-23T21:04:42.434Z,67.80
2017-08-23T21:07:09.989Z,68.30
2017-08-23T21:09:37.516Z,68.80
2017-08-23T21:12:05.009Z,69.10
2017-08-23T21:14:32.518Z,69.50
2017-08-23T21:17:00.009Z,69.70
2017-08-23T21:19:27.525Z,70.00
2017-08-23T21:21:55.017Z,70.30
2017-08-23T21:24:22.553Z,70.60
2017-08-23T21:26:50.069Z,70.70
2017-08-23T21:29:17.558Z,71.10
2017-08-23T21:31:45.061Z,71.30
2017-08-23T21:34:12.628Z,71.40
2017-08-23T21:36:40.192Z,71.80
2017-08-23T21:39:07.682Z,71.90
2017-08-23T21:41:35.257Z,72.00
2017-08-23T21:44:02.766Z,73.20
2017-08-23T21:46:31.062Z,72.70
2017-08-23T21:48:58.605Z,72.70
2017-08-23T21:51:26.146Z,72.90
2017-08-23T21:53:53.693Z,73.10
2017-08-23T21:56:21.245Z,73.40
2017-08-23T21:58:48.757Z,73.60
2017-08-23T22:01:16.253Z,73.80
2017-08-23T22:03:43.765Z,74.30
2017-08-23T22:06:11.249Z,74.30
2017-08-23T22:08:38.749Z,74.80
2017-08-23T22:11:06.285Z,75.20
2017-08-23T22:13:33.830Z,75.30
2017-08-23T22:16:01.369Z,76.00
2017-08-23T22:18:28.939Z,76.60
2017-08-23T22:20:56.461Z,77.20
2017-08-23T22:23:23.949Z,78.10
2017-08-23T22:25:51.462Z,78.60
2017-08-23T22:28:18.981Z,79.70
2017-08-23T22:30:46.537Z,82.00
2017-08-23T22:33:14.101Z,83.10
2017-08-23T22:35:41.605Z,83.80
2017-08-23T22:38:09.097Z,84.30
2017-08-23T22:40:37.532Z,84.40
2017-08-23T22:43:05.021Z,84.90
2017-08-23T22:45:32.569Z,85.60
2017-08-23T22:48:00.158Z,85.70
2017-08-23T22:50:27.653Z,85.90
2017-08-23T22:52:55.245Z,86.10
2017-08-23T22:55:22.757Z,86.20
2017-08-23T22:57:50.272Z,86.40
2017-08-23T23:00:17.766Z,86.20
2017-08-23T23:02:45.333Z,86.20
2017-08-23T23:05:12.829Z,86.20
2017-08-23T23:07:40.411Z,86.00
2017-08-23T23:10:07.909Z,86.20
2017-08-23T23:12:35.481Z,86.20
2017-08-23T23:15:02.974Z,86.40
2017-08-23T23:17:30.561Z,86.50
2017-08-23T23:19:58.134Z,86.70
2017-08-23T23:22:25.650Z,87.50
2017-08-23T23:24:53.149Z,87.00
2017-08-23T23:27:20.682Z,87.10
2017-08-23T23:29:48.185Z,87.20
2017-08-23T23:32:15.731Z,87.30
2017-08-23T23:34:43.278Z,87.60
2017-08-23T23:37:10.770Z,87.90
2017-08-23T23:39:38.363Z,87.90
2017-08-23T23:42:05.902Z,87.90
2017-08-23T23:44:33.414Z,87.90
2017-08-23T23:47:00.968Z,88.10
2017-08-23T23:49:28.481Z,88.20
2017-08-23T23:51:56.083Z,88.40
2017-08-23T23:54:23.616Z,88.70
2017-08-23T23:56:51.169Z,88.70
2017-08-23T23:59:18.717Z,88.80
